sensor_id;sensor_type;location;lat;lon;timestamp;temperature;humidity
18173;DHT22;9211;48.818;9.312;2023-05-24T00:00:09;15.50;99.90
18173;DHT22;9211;48.818;9.312;2023-05-24T00:02:38;15.60;99.90
18173;DHT22;9211;48.818;9.312;2023-05-24T00:05:07;15.50;99.90
18173;DHT22;9211;48.818;9.312;2023-05-24T00:07:34;15.60;99.90
18173;DHT22;9211;48.818;9.312;2023-05-24T00:10:02;15.60;99.90
18173;DHT22;9211;48.818;9.312;2023-05-24T00:12:30;15.60;99.90
18173;DHT22;9211;48.818;9.312;2023-05-24T00:14:58;15.60;99.90
18173;DHT22;9211;48.818;9.312;2023-05-24T00:17:25;15.60;99.90
18173;DHT22;9211;48.818;9.312;2023-05-24T00:19:54;15.60;99.90
18173;DHT22;9211;48.818;9.312;2023-05-24T00:22:21;15.60;99.90
18173;DHT22;9211;48.818;9.312;2023-05-24T00:24:49;15.50;99.90
18173;DHT22;9211;48.818;9.312;2023-05-24T00:27:17;15.50;99.90
18173;DHT22;9211;48.818;9.312;2023-05-24T00:29:45;15.50;99.90
18173;DHT22;9211;48.818;9.312;2023-05-24T00:32:12;15.50;99.90
18173;DHT22;9211;48.818;9.312;2023-05-24T00:34:39;15.50;99.90
18173;DHT22;9211;48.818;9.312;2023-05-24T00:37:06;15.40;99.90
18173;DHT22;9211;48.818;9.312;2023-05-24T00:39:33;15.40;99.90
18173;DHT22;9211;48.818;9.312;2023-05-24T00:42:00;15.40;99.90
18173;DHT22;9211;48.818;9.312;2023-05-24T00:44:28;15.30;99.90
18173;DHT22;9211;48.818;9.312;2023-05-24T00:46:56;15.30;99.90
18173;DHT22;9211;48.818;9.312;2023-05-24T00:49:23;15.30;99.90
18173;DHT22;9211;48.818;9.312;2023-05-24T00:51:52;15.30;99.90
18173;DHT22;9211;48.818;9.312;2023-05-24T00:54:19;15.30;99.90
18173;DHT22;9211;48.818;9.312;2023-05-24T00:56:47;15.30;99.90
18173;DHT22;9211;48.818;9.312;2023-05-24T00:59:15;15.30;99.90
18173;DHT22;9211;48.818;9.312;2023-05-24T01:01:42;15.20;99.90
18173;DHT22;9211;48.818;9.312;2023-05-24T01:04:14;15.20;99.90
18173;DHT22;9211;48.818;9.312;2023-05-24T01:06:50;15.10;99.90
18173;DHT22;9211;48.818;9.312;2023-05-24T01:09:27;15.10;99.90
18173;DHT22;9211;48.818;9.312;2023-05-24T01:12:11;15.10;99.90
18173;DHT22;9211;48.818;9.312;2023-05-24T01:14:46;15.10;99.90
18173;DHT22;9211;48.818;9.312;2023-05-24T01:17:19;15.10;99.90
18173;DHT22;9211;48.818;9.312;2023-05-24T01:19:51;15.00;99.90
18173;DHT22;9211;48.818;9.312;2023-05-24T01:22:54;14.90;99.90
18173;DHT22;9211;48.818;9.312;2023-05-24T01:25:59;14.70;99.90
18173;DHT22;9211;48.818;9.312;2023-05-24T01:28:31;14.70;99.90
18173;DHT22;9211;48.818;9.312;2023-05-24T01:30:59;14.70;99.90
18173;DHT22;9211;48.818;9.312;2023-05-24T01:33:26;14.70;99.90
18173;DHT22;9211;48.818;9.312;2023-05-24T01:35:55;14.80;99.90
18173;DHT22;9211;48.818;9.312;2023-05-24T01:38:22;14.90;99.90
18173;DHT22;9211;48.818;9.312;2023-05-24T01:40:54;14.90;99.90
18173;DHT22;9211;48.818;9.312;2023-05-24T01:43:32;14.80;99.90
18173;DHT22;9211;48.818;9.312;2023-05-24T01:46:08;14.80;99.90
18173;DHT22;9211;48.818;9.312;2023-05-24T01:48:41;14.80;99.90
18173;DHT22;9211;48.818;9.312;2023-05-24T01:51:17;14.70;99.90
18173;DHT22;9211;48.818;9.312;2023-05-24T01:53:45;14.70;99.90
18173;DHT22;9211;48.818;9.312;2023-05-24T01:56:15;14.60;99.90
18173;DHT22;9211;48.818;9.312;2023-05-24T01:58:46;14.60;99.90
18173;DHT22;9211;48.818;9.312;2023-05-24T02:01:17;14.60;99.90
18173;DHT22;9211;48.818;9.312;2023-05-24T02:03:45;14.50;99.90
18173;DHT22;9211;48.818;9.312;2023-05-24T02:06:13;14.60;99.90
18173;DHT22;9211;48.818;9.312;2023-05-24T02:08:40;14.60;99.90
18173;DHT22;9211;48.818;9.312;2023-05-24T02:11:07;14.50;99.90
18173;DHT22;9211;48.818;9.312;2023-05-24T02:13:34;14.50;99.90
18173;DHT22;9211;48.818;9.312;2023-05-24T02:16:02;14.40;99.90
18173;DHT22;9211;48.818;9.312;2023-05-24T02:18:30;14.40;99.90
18173;DHT22;9211;48.818;9.312;2023-05-24T02:20:59;14.40;99.90
18173;DHT22;9211;48.818;9.312;2023-05-24T02:23:26;14.40;99.90
18173;DHT22;9211;48.818;9.312;2023-05-24T02:25:54;14.40;99.90
18173;DHT22;9211;48.818;9.312;2023-05-24T02:28:21;14.30;99.90
18173;DHT22;9211;48.818;9.312;2023-05-24T02:30:48;14.30;99.90
18173;DHT22;9211;48.818;9.312;2023-05-24T02:33:17;14.30;99.90
18173;DHT22;9211;48.818;9.312;2023-05-24T02:35:44;14.30;99.90
18173;DHT22;9211;48.818;9.312;2023-05-24T02:38:11;14.20;99.90
18173;DHT22;9211;48.818;9.312;2023-05-24T02:40:38;14.20;99.90
18173;DHT22;9211;48.818;9.312;2023-05-24T02:43:04;14.20;99.90
18173;DHT22;9211;48.818;9.312;2023-05-24T02:45:32;14.20;99.90
18173;DHT22;9211;48.818;9.312;2023-05-24T02:47:59;14.30;99.90
18173;DHT22;9211;48.818;9.312;2023-05-24T02:50:27;14.20;99.90
18173;DHT22;9211;48.818;9.312;2023-05-24T02:52:54;14.20;99.90
18173;DHT22;9211;48.818;9.312;2023-05-24T02:55:21;14.10;99.90
18173;DHT22;9211;48.818;9.312;2023-05-24T02:57:48;14.10;99.90
18173;DHT22;9211;48.818;9.312;2023-05-24T03:00:16;14.00;99.90
18173;DHT22;9211;48.818;9.312;2023-05-24T03:02:44;14.00;99.90
18173;DHT22;9211;48.818;9.312;2023-05-24T03:05:13;14.00;99.90
18173;DHT22;9211;48.818;9.312;2023-05-24T03:07:42;13.90;99.90
18173;DHT22;9211;48.818;9.312;2023-05-24T03:10:09;13.90;99.90
18173;DHT22;9211;48.818;9.312;2023-05-24T03:12:36;13.80;99.90
18173;DHT22;9211;48.818;9.312;2023-05-24T03:15:04;13.80;99.90
18173;DHT22;9211;48.818;9.312;2023-05-24T03:17:31;13.90;99.90
18173;DHT22;9211;48.818;9.312;2023-05-24T03:19:59;13.90;99.90
18173;DHT22;9211;48.818;9.312;2023-05-24T03:22:29;13.90;99.90
18173;DHT22;9211;48.818;9.312;2023-05-24T03:24:57;13.80;99.90
18173;DHT22;9211;48.818;9.312;2023-05-24T03:27:25;13.80;99.90
18173;DHT22;9211;48.818;9.312;2023-05-24T03:29:53;13.70;99.90
18173;DHT22;9211;48.818;9.312;2023-05-24T03:32:23;13.60;99.90
18173;DHT22;9211;48.818;9.312;2023-05-24T03:34:50;13.60;99.90
18173;DHT22;9211;48.818;9.312;2023-05-24T03:37:17;13.60;99.90
18173;DHT22;9211;48.818;9.312;2023-05-24T03:39:45;13.60;99.90
18173;DHT22;9211;48.818;9.312;2023-05-24T03:42:26;13.60;99.90
18173;DHT22;9211;48.818;9.312;2023-05-24T03:44:52;13.60;99.90
18173;DHT22;9211;48.818;9.312;2023-05-24T03:47:19;13.60;99.90
18173;DHT22;9211;48.818;9.312;2023-05-24T03:49:47;13.60;99.90
18173;DHT22;9211;48.818;9.312;2023-05-24T03:52:14;13.60;99.90
18173;DHT22;9211;48.818;9.312;2023-05-24T03:54:42;13.60;99.90
18173;DHT22;9211;48.818;9.312;2023-05-24T03:57:10;13.60;99.90
18173;DHT22;9211;48.818;9.312;2023-05-24T03:59:38;13.50;99.90
18173;DHT22;9211;48.818;9.312;2023-05-24T04:02:05;13.40;99.90
18173;DHT22;9211;48.818;9.312;2023-05-24T04:04:33;13.50;99.90
18173;DHT22;9211;48.818;9.312;2023-05-24T04:07:01;13.50;99.90
18173;DHT22;9211;48.818;9.312;2023-05-24T04:09:29;13.50;99.90
18173;DHT22;9211;48.818;9.312;2023-05-24T04:11:55;13.60;99.90
18173;DHT22;9211;48.818;9.312;2023-05-24T04:14:22;13.60;99.90
18173;DHT22;9211;48.818;9.312;2023-05-24T04:16:51;13.60;99.90
18173;DHT22;9211;48.818;9.312;2023-05-24T04:19:18;13.60;99.90
18173;DHT22;9211;48.818;9.312;2023-05-24T04:21:45;13.50;99.90
18173;DHT22;9211;48.818;9.312;2023-05-24T04:24:12;13.50;99.90
18173;DHT22;9211;48.818;9.312;2023-05-24T04:26:42;13.60;99.90
18173;DHT22;9211;48.818;9.312;2023-05-24T04:29:09;13.50;99.90
18173;DHT22;9211;48.818;9.312;2023-05-24T04:31:36;13.50;99.90
18173;DHT22;9211;48.818;9.312;2023-05-24T04:34:05;13.50;99.90
18173;DHT22;9211;48.818;9.312;2023-05-24T04:36:34;13.50;99.90
18173;DHT22;9211;48.818;9.312;2023-05-24T04:39:02;13.50;99.90
18173;DHT22;9211;48.818;9.312;2023-05-24T04:41:30;13.50;99.90
18173;DHT22;9211;48.818;9.312;2023-05-24T04:43:57;13.50;99.90
18173;DHT22;9211;48.818;9.312;2023-05-24T04:46:25;13.60;99.90
18173;DHT22;9211;48.818;9.312;2023-05-24T04:48:55;13.60;99.90
18173;DHT22;9211;48.818;9.312;2023-05-24T04:51:24;13.60;99.90
18173;DHT22;9211;48.818;9.312;2023-05-24T04:53:52;13.60;99.90
18173;DHT22;9211;48.818;9.312;2023-05-24T04:56:19;13.50;99.90
18173;DHT22;9211;48.818;9.312;2023-05-24T04:58:47;13.50;99.90
18173;DHT22;9211;48.818;9.312;2023-05-24T05:01:14;13.50;99.90
18173;DHT22;9211;48.818;9.312;2023-05-24T05:03:40;13.40;99.90
18173;DHT22;9211;48.818;9.312;2023-05-24T05:06:09;13.40;99.90
18173;DHT22;9211;48.818;9.312;2023-05-24T05:08:37;13.50;99.90
18173;DHT22;9211;48.818;9.312;2023-05-24T05:11:05;13.50;99.90
18173;DHT22;9211;48.818;9.312;2023-05-24T05:13:32;13.40;99.90
18173;DHT22;9211;48.818;9.312;2023-05-24T05:15:59;13.50;99.90
18173;DHT22;9211;48.818;9.312;2023-05-24T05:18:26;13.50;99.90
18173;DHT22;9211;48.818;9.312;2023-05-24T05:20:53;13.50;99.90
18173;DHT22;9211;48.818;9.312;2023-05-24T05:23:20;13.50;99.90
18173;DHT22;9211;48.818;9.312;2023-05-24T05:25:48;13.50;99.90
18173;DHT22;9211;48.818;9.312;2023-05-24T05:28:15;13.50;99.90
18173;DHT22;9211;48.818;9.312;2023-05-24T05:30:42;13.50;99.90
18173;DHT22;9211;48.818;9.312;2023-05-24T05:33:09;13.50;99.90
18173;DHT22;9211;48.818;9.312;2023-05-24T05:35:36;13.50;99.90
18173;DHT22;9211;48.818;9.312;2023-05-24T05:38:03;13.70;99.90
18173;DHT22;9211;48.818;9.312;2023-05-24T05:40:30;13.70;99.90
18173;DHT22;9211;48.818;9.312;2023-05-24T05:42:59;13.70;99.90
18173;DHT22;9211;48.818;9.312;2023-05-24T05:45:26;13.80;99.90
18173;DHT22;9211;48.818;9.312;2023-05-24T05:47:52;13.80;99.90
18173;DHT22;9211;48.818;9.312;2023-05-24T05:50:22;13.90;99.90
18173;DHT22;9211;48.818;9.312;2023-05-24T05:52:49;14.00;99.90
18173;DHT22;9211;48.818;9.312;2023-05-24T05:55:16;14.00;99.90
18173;DHT22;9211;48.818;9.312;2023-05-24T05:57:43;14.00;99.90
18173;DHT22;9211;48.818;9.312;2023-05-24T06:00:12;14.00;99.90
18173;DHT22;9211;48.818;9.312;2023-05-24T06:02:40;14.10;99.90
18173;DHT22;9211;48.818;9.312;2023-05-24T06:05:08;14.00;99.90
18173;DHT22;9211;48.818;9.312;2023-05-24T06:07:35;13.90;99.90
18173;DHT22;9211;48.818;9.312;2023-05-24T06:10:03;14.00;99.90
18173;DHT22;9211;48.818;9.312;2023-05-24T06:12:30;14.00;99.90
18173;DHT22;9211;48.818;9.312;2023-05-24T06:14:58;14.10;99.90
18173;DHT22;9211;48.818;9.312;2023-05-24T06:17:26;14.10;99.90
18173;DHT22;9211;48.818;9.312;2023-05-24T06:19:53;14.20;99.90
18173;DHT22;9211;48.818;9.312;2023-05-24T06:22:23;14.20;99.90
18173;DHT22;9211;48.818;9.312;2023-05-24T06:24:52;14.20;99.90
18173;DHT22;9211;48.818;9.312;2023-05-24T06:27:19;14.20;99.90
18173;DHT22;9211;48.818;9.312;2023-05-24T06:29:46;14.30;99.90
18173;DHT22;9211;48.818;9.312;2023-05-24T06:32:13;14.20;99.90
18173;DHT22;9211;48.818;9.312;2023-05-24T06:34:41;14.20;99.90
18173;DHT22;9211;48.818;9.312;2023-05-24T06:37:09;14.30;99.90
18173;DHT22;9211;48.818;9.312;2023-05-24T06:39:39;14.40;99.90
18173;DHT22;9211;48.818;9.312;2023-05-24T06:42:07;14.50;99.90
18173;DHT22;9211;48.818;9.312;2023-05-24T06:44:36;14.50;99.90
18173;DHT22;9211;48.818;9.312;2023-05-24T06:47:03;14.50;99.90
18173;DHT22;9211;48.818;9.312;2023-05-24T06:49:31;14.60;99.90
18173;DHT22;9211;48.818;9.312;2023-05-24T06:51:59;14.60;99.90
18173;DHT22;9211;48.818;9.312;2023-05-24T06:54:26;14.60;99.90
18173;DHT22;9211;48.818;9.312;2023-05-24T06:56:53;14.70;99.90
18173;DHT22;9211;48.818;9.312;2023-05-24T06:59:21;14.60;99.90
18173;DHT22;9211;48.818;9.312;2023-05-24T07:01:48;14.50;99.90
18173;DHT22;9211;48.818;9.312;2023-05-24T07:04:18;14.40;99.90
18173;DHT22;9211;48.818;9.312;2023-05-24T07:06:45;14.30;99.90
18173;DHT22;9211;48.818;9.312;2023-05-24T07:09:13;14.30;99.90
18173;DHT22;9211;48.818;9.312;2023-05-24T07:11:40;14.20;99.90
18173;DHT22;9211;48.818;9.312;2023-05-24T07:14:07;14.10;99.90
18173;DHT22;9211;48.818;9.312;2023-05-24T07:16:34;14.00;99.90
18173;DHT22;9211;48.818;9.312;2023-05-24T07:19:01;14.00;99.90
18173;DHT22;9211;48.818;9.312;2023-05-24T07:21:28;14.00;99.90
18173;DHT22;9211;48.818;9.312;2023-05-24T07:23:56;14.00;99.90
18173;DHT22;9211;48.818;9.312;2023-05-24T07:26:24;14.10;99.90
18173;DHT22;9211;48.818;9.312;2023-05-24T07:28:51;14.20;99.90
18173;DHT22;9211;48.818;9.312;2023-05-24T07:31:18;14.20;99.90
18173;DHT22;9211;48.818;9.312;2023-05-24T07:33:45;14.20;99.90
18173;DHT22;9211;48.818;9.312;2023-05-24T07:36:13;14.30;99.90
18173;DHT22;9211;48.818;9.312;2023-05-24T07:38:41;14.20;99.90
18173;DHT22;9211;48.818;9.312;2023-05-24T07:41:09;14.20;99.90
18173;DHT22;9211;48.818;9.312;2023-05-24T07:43:38;14.30;99.90
18173;DHT22;9211;48.818;9.312;2023-05-24T07:46:05;14.50;99.90
18173;DHT22;9211;48.818;9.312;2023-05-24T07:48:32;14.60;99.90
18173;DHT22;9211;48.818;9.312;2023-05-24T07:50:58;14.70;99.90
18173;DHT22;9211;48.818;9.312;2023-05-24T07:53:25;14.80;99.90
18173;DHT22;9211;48.818;9.312;2023-05-24T07:55:53;14.80;99.90
18173;DHT22;9211;48.818;9.312;2023-05-24T07:58:21;14.70;99.90
18173;DHT22;9211;48.818;9.312;2023-05-24T08:00:49;14.70;99.90
18173;DHT22;9211;48.818;9.312;2023-05-24T08:03:17;14.70;99.90
18173;DHT22;9211;48.818;9.312;2023-05-24T08:05:44;14.70;99.90
18173;DHT22;9211;48.818;9.312;2023-05-24T08:08:11;14.70;99.90
18173;DHT22;9211;48.818;9.312;2023-05-24T08:10:38;14.60;99.90
18173;DHT22;9211;48.818;9.312;2023-05-24T08:13:05;14.50;99.90
18173;DHT22;9211;48.818;9.312;2023-05-24T08:15:32;14.40;99.90
18173;DHT22;9211;48.818;9.312;2023-05-24T08:18:00;14.40;99.90
18173;DHT22;9211;48.818;9.312;2023-05-24T08:20:28;14.40;99.90
18173;DHT22;9211;48.818;9.312;2023-05-24T08:22:55;14.40;99.90
18173;DHT22;9211;48.818;9.312;2023-05-24T08:25:22;14.40;99.90
18173;DHT22;9211;48.818;9.312;2023-05-24T08:27:48;14.50;99.90
18173;DHT22;9211;48.818;9.312;2023-05-24T08:30:16;14.50;99.90
18173;DHT22;9211;48.818;9.312;2023-05-24T08:32:44;14.60;99.90
18173;DHT22;9211;48.818;9.312;2023-05-24T08:35:13;14.60;99.90
18173;DHT22;9211;48.818;9.312;2023-05-24T08:37:40;14.60;99.90
18173;DHT22;9211;48.818;9.312;2023-05-24T08:40:08;14.70;99.90
18173;DHT22;9211;48.818;9.312;2023-05-24T08:42:37;14.80;99.90
18173;DHT22;9211;48.818;9.312;2023-05-24T08:45:07;14.90;99.90
18173;DHT22;9211;48.818;9.312;2023-05-24T08:47:35;15.00;99.90
18173;DHT22;9211;48.818;9.312;2023-05-24T08:50:03;15.10;99.90
18173;DHT22;9211;48.818;9.312;2023-05-24T08:52:32;15.10;99.90
18173;DHT22;9211;48.818;9.312;2023-05-24T08:55:00;15.20;99.90
18173;DHT22;9211;48.818;9.312;2023-05-24T08:57:27;15.30;99.90
18173;DHT22;9211;48.818;9.312;2023-05-24T08:59:55;15.30;99.90
18173;DHT22;9211;48.818;9.312;2023-05-24T09:02:23;15.20;99.90
18173;DHT22;9211;48.818;9.312;2023-05-24T09:04:52;15.20;99.90
18173;DHT22;9211;48.818;9.312;2023-05-24T09:07:21;15.10;99.90
18173;DHT22;9211;48.818;9.312;2023-05-24T09:09:56;15.00;99.90
18173;DHT22;9211;48.818;9.312;2023-05-24T09:12:24;15.10;99.90
18173;DHT22;9211;48.818;9.312;2023-05-24T09:14:52;15.10;99.90
18173;DHT22;9211;48.818;9.312;2023-05-24T09:17:20;15.20;99.90
18173;DHT22;9211;48.818;9.312;2023-05-24T09:19:49;15.10;99.90
18173;DHT22;9211;48.818;9.312;2023-05-24T09:22:18;15.10;99.90
18173;DHT22;9211;48.818;9.312;2023-05-24T09:24:49;15.10;99.90
18173;DHT22;9211;48.818;9.312;2023-05-24T09:27:17;15.10;99.90
18173;DHT22;9211;48.818;9.312;2023-05-24T09:29:46;15.10;99.90
18173;DHT22;9211;48.818;9.312;2023-05-24T09:32:14;15.10;99.90
18173;DHT22;9211;48.818;9.312;2023-05-24T09:34:42;15.00;99.90
18173;DHT22;9211;48.818;9.312;2023-05-24T09:37:11;15.00;99.90
18173;DHT22;9211;48.818;9.312;2023-05-24T09:39:41;15.00;99.90
18173;DHT22;9211;48.818;9.312;2023-05-24T09:42:14;15.10;99.90
18173;DHT22;9211;48.818;9.312;2023-05-24T09:44:42;15.10;99.90
18173;DHT22;9211;48.818;9.312;2023-05-24T09:47:09;15.20;99.90
18173;DHT22;9211;48.818;9.312;2023-05-24T09:49:37;15.20;99.90
18173;DHT22;9211;48.818;9.312;2023-05-24T09:52:04;15.10;99.90
18173;DHT22;9211;48.818;9.312;2023-05-24T09:54:31;15.10;99.90
18173;DHT22;9211;48.818;9.312;2023-05-24T09:56:59;15.10;99.90
18173;DHT22;9211;48.818;9.312;2023-05-24T09:59:32;15.00;99.90
18173;DHT22;9211;48.818;9.312;2023-05-24T10:02:07;15.00;99.90
18173;DHT22;9211;48.818;9.312;2023-05-24T10:04:36;14.90;99.90
18173;DHT22;9211;48.818;9.312;2023-05-24T10:07:04;14.90;99.90
18173;DHT22;9211;48.818;9.312;2023-05-24T10:09:31;14.80;99.90
18173;DHT22;9211;48.818;9.312;2023-05-24T10:12:03;14.80;99.90
18173;DHT22;9211;48.818;9.312;2023-05-24T10:14:33;14.70;99.90
18173;DHT22;9211;48.818;9.312;2023-05-24T10:17:02;14.80;99.90
18173;DHT22;9211;48.818;9.312;2023-05-24T10:19:30;14.80;99.90
18173;DHT22;9211;48.818;9.312;2023-05-24T10:21:59;14.70;99.90
18173;DHT22;9211;48.818;9.312;2023-05-24T10:24:32;14.70;99.90
18173;DHT22;9211;48.818;9.312;2023-05-24T10:27:04;14.60;99.90
18173;DHT22;9211;48.818;9.312;2023-05-24T10:29:43;14.70;99.90
18173;DHT22;9211;48.818;9.312;2023-05-24T10:32:16;14.70;99.90
18173;DHT22;9211;48.818;9.312;2023-05-24T10:34:44;14.80;99.90
18173;DHT22;9211;48.818;9.312;2023-05-24T10:37:12;14.90;99.90
18173;DHT22;9211;48.818;9.312;2023-05-24T10:39:40;14.90;99.90
18173;DHT22;9211;48.818;9.312;2023-05-24T10:42:07;14.90;99.90
18173;DHT22;9211;48.818;9.312;2023-05-24T10:44:36;14.90;99.90
18173;DHT22;9211;48.818;9.312;2023-05-24T10:47:07;14.90;99.90
18173;DHT22;9211;48.818;9.312;2023-05-24T10:49:35;15.00;99.90
18173;DHT22;9211;48.818;9.312;2023-05-24T10:52:06;14.90;99.90
18173;DHT22;9211;48.818;9.312;2023-05-24T10:54:33;14.90;99.90
18173;DHT22;9211;48.818;9.312;2023-05-24T10:57:01;14.90;99.90
18173;DHT22;9211;48.818;9.312;2023-05-24T10:59:32;14.80;99.90
18173;DHT22;9211;48.818;9.312;2023-05-24T11:02:05;14.70;99.90
18173;DHT22;9211;48.818;9.312;2023-05-24T11:04:37;14.70;99.90
18173;DHT22;9211;48.818;9.312;2023-05-24T11:07:06;14.80;99.90
18173;DHT22;9211;48.818;9.312;2023-05-24T11:09:34;14.90;99.90
18173;DHT22;9211;48.818;9.312;2023-05-24T11:12:03;15.20;99.90
18173;DHT22;9211;48.818;9.312;2023-05-24T11:14:36;15.40;99.90
18173;DHT22;9211;48.818;9.312;2023-05-24T11:17:05;15.60;99.90
18173;DHT22;9211;48.818;9.312;2023-05-24T11:19:34;15.80;99.90
18173;DHT22;9211;48.818;9.312;2023-05-24T11:22:05;15.90;99.90
18173;DHT22;9211;48.818;9.312;2023-05-24T11:24:33;16.00;99.90
18173;DHT22;9211;48.818;9.312;2023-05-24T11:27:00;16.20;99.90
18173;DHT22;9211;48.818;9.312;2023-05-24T11:29:28;16.20;99.90
18173;DHT22;9211;48.818;9.312;2023-05-24T11:31:56;16.00;99.90
18173;DHT22;9211;48.818;9.312;2023-05-24T11:34:30;16.00;99.90
18173;DHT22;9211;48.818;9.312;2023-05-24T11:36:58;16.20;99.90
18173;DHT22;9211;48.818;9.312;2023-05-24T11:39:28;16.30;99.90
18173;DHT22;9211;48.818;9.312;2023-05-24T11:41:59;16.10;99.90
18173;DHT22;9211;48.818;9.312;2023-05-24T11:44:29;15.90;99.90
18173;DHT22;9211;48.818;9.312;2023-05-24T11:46:57;15.70;99.90
18173;DHT22;9211;48.818;9.312;2023-05-24T11:49:25;15.60;99.90
18173;DHT22;9211;48.818;9.312;2023-05-24T11:51:54;15.50;99.90
18173;DHT22;9211;48.818;9.312;2023-05-24T11:54:22;15.50;99.90
18173;DHT22;9211;48.818;9.312;2023-05-24T11:56:49;15.50;99.90
18173;DHT22;9211;48.818;9.312;2023-05-24T11:59:22;15.50;99.90
18173;DHT22;9211;48.818;9.312;2023-05-24T12:01:55;15.60;99.90
18173;DHT22;9211;48.818;9.312;2023-05-24T12:04:23;15.70;99.90
18173;DHT22;9211;48.818;9.312;2023-05-24T12:06:50;15.80;99.90
18173;DHT22;9211;48.818;9.312;2023-05-24T12:09:18;16.00;99.90
18173;DHT22;9211;48.818;9.312;2023-05-24T12:11:47;16.20;99.90
18173;DHT22;9211;48.818;9.312;2023-05-24T12:14:16;16.40;99.90
18173;DHT22;9211;48.818;9.312;2023-05-24T12:16:44;16.60;99.90
18173;DHT22;9211;48.818;9.312;2023-05-24T12:19:18;16.80;99.90
18173;DHT22;9211;48.818;9.312;2023-05-24T12:21:47;17.00;99.90
18173;DHT22;9211;48.818;9.312;2023-05-24T12:24:15;17.20;99.90
18173;DHT22;9211;48.818;9.312;2023-05-24T12:26:47;17.50;99.90
18173;DHT22;9211;48.818;9.312;2023-05-24T12:29:14;17.80;99.90
18173;DHT22;9211;48.818;9.312;2023-05-24T12:31:43;18.00;99.90
18173;DHT22;9211;48.818;9.312;2023-05-24T12:34:11;18.00;99.90
18173;DHT22;9211;48.818;9.312;2023-05-24T12:36:39;17.90;99.90
18173;DHT22;9211;48.818;9.312;2023-05-24T12:39:17;17.80;99.90
18173;DHT22;9211;48.818;9.312;2023-05-24T12:41:49;17.90;99.90
18173;DHT22;9211;48.818;9.312;2023-05-24T12:44:20;17.90;99.90
18173;DHT22;9211;48.818;9.312;2023-05-24T12:46:47;17.90;99.90
18173;DHT22;9211;48.818;9.312;2023-05-24T12:49:15;17.90;99.90
18173;DHT22;9211;48.818;9.312;2023-05-24T12:51:42;17.90;99.90
18173;DHT22;9211;48.818;9.312;2023-05-24T12:54:09;17.90;99.90
18173;DHT22;9211;48.818;9.312;2023-05-24T12:56:36;17.90;99.90
18173;DHT22;9211;48.818;9.312;2023-05-24T12:59:05;18.00;99.90
18173;DHT22;9211;48.818;9.312;2023-05-24T13:01:32;18.00;99.90
18173;DHT22;9211;48.818;9.312;2023-05-24T13:03:59;17.90;99.90
18173;DHT22;9211;48.818;9.312;2023-05-24T13:06:26;18.00;99.90
18173;DHT22;9211;48.818;9.312;2023-05-24T13:08:53;18.20;99.90
18173;DHT22;9211;48.818;9.312;2023-05-24T13:11:20;18.80;99.90
18173;DHT22;9211;48.818;9.312;2023-05-24T13:13:47;19.10;99.90
18173;DHT22;9211;48.818;9.312;2023-05-24T13:16:16;19.20;99.90
18173;DHT22;9211;48.818;9.312;2023-05-24T13:18:43;19.20;99.90
18173;DHT22;9211;48.818;9.312;2023-05-24T13:21:10;19.20;99.90
18173;DHT22;9211;48.818;9.312;2023-05-24T13:23:38;19.20;99.90
18173;DHT22;9211;48.818;9.312;2023-05-24T13:26:05;19.10;99.90
18173;DHT22;9211;48.818;9.312;2023-05-24T13:28:33;19.00;99.90
18173;DHT22;9211;48.818;9.312;2023-05-24T13:31:00;18.90;99.90
18173;DHT22;9211;48.818;9.312;2023-05-24T13:33:30;19.10;99.90
18173;DHT22;9211;48.818;9.312;2023-05-24T13:35:57;19.20;99.90
18173;DHT22;9211;48.818;9.312;2023-05-24T13:38:24;19.40;99.90
18173;DHT22;9211;48.818;9.312;2023-05-24T13:40:52;19.70;99.90
18173;DHT22;9211;48.818;9.312;2023-05-24T13:43:19;19.80;99.90
18173;DHT22;9211;48.818;9.312;2023-05-24T13:45:47;19.90;99.90
18173;DHT22;9211;48.818;9.312;2023-05-24T13:48:14;19.80;99.90
18173;DHT22;9211;48.818;9.312;2023-05-24T13:50:42;19.80;99.90
18173;DHT22;9211;48.818;9.312;2023-05-24T13:53:09;19.70;99.90
18173;DHT22;9211;48.818;9.312;2023-05-24T13:55:36;19.60;99.90
18173;DHT22;9211;48.818;9.312;2023-05-24T13:58:03;19.10;98.90
18173;DHT22;9211;48.818;9.312;2023-05-24T14:00:31;19.10;99.90
18173;DHT22;9211;48.818;9.312;2023-05-24T14:03:00;19.20;99.90
18173;DHT22;9211;48.818;9.312;2023-05-24T14:05:28;19.30;99.90
18173;DHT22;9211;48.818;9.312;2023-05-24T14:07:57;19.50;99.70
18173;DHT22;9211;48.818;9.312;2023-05-24T14:10:31;19.60;98.60
18173;DHT22;9211;48.818;9.312;2023-05-24T14:12:58;19.80;98.70
18173;DHT22;9211;48.818;9.312;2023-05-24T14:15:25;19.80;96.50
18173;DHT22;9211;48.818;9.312;2023-05-24T14:17:52;19.70;96.20
18173;DHT22;9211;48.818;9.312;2023-05-24T14:20:19;19.50;95.60
18173;DHT22;9211;48.818;9.312;2023-05-24T14:22:46;19.60;96.20
18173;DHT22;9211;48.818;9.312;2023-05-24T14:25:14;19.90;96.30
18173;DHT22;9211;48.818;9.312;2023-05-24T14:27:42;20.10;96.00
18173;DHT22;9211;48.818;9.312;2023-05-24T14:30:11;20.10;94.40
18173;DHT22;9211;48.818;9.312;2023-05-24T14:32:38;20.20;94.60
18173;DHT22;9211;48.818;9.312;2023-05-24T14:35:05;20.30;94.70
18173;DHT22;9211;48.818;9.312;2023-05-24T14:37:32;20.60;94.20
18173;DHT22;9211;48.818;9.312;2023-05-24T14:39:59;20.70;93.70
18173;DHT22;9211;48.818;9.312;2023-05-24T14:42:29;20.80;93.20
18173;DHT22;9211;48.818;9.312;2023-05-24T14:44:56;20.80;92.80
18173;DHT22;9211;48.818;9.312;2023-05-24T14:47:23;21.00;92.70
18173;DHT22;9211;48.818;9.312;2023-05-24T14:49:50;21.20;92.50
18173;DHT22;9211;48.818;9.312;2023-05-24T14:52:17;21.40;90.80
18173;DHT22;9211;48.818;9.312;2023-05-24T14:54:44;21.40;88.50
18173;DHT22;9211;48.818;9.312;2023-05-24T14:57:11;21.50;89.40
18173;DHT22;9211;48.818;9.312;2023-05-24T14:59:39;21.60;89.50
18173;DHT22;9211;48.818;9.312;2023-05-24T15:02:06;21.40;85.10
18173;DHT22;9211;48.818;9.312;2023-05-24T15:04:33;21.40;85.90
18173;DHT22;9211;48.818;9.312;2023-05-24T15:07:01;21.10;85.40
18173;DHT22;9211;48.818;9.312;2023-05-24T15:09:28;20.90;87.30
18173;DHT22;9211;48.818;9.312;2023-05-24T15:11:54;20.70;87.50
18173;DHT22;9211;48.818;9.312;2023-05-24T15:14:21;20.70;89.10
18173;DHT22;9211;48.818;9.312;2023-05-24T15:16:50;20.50;87.00
18173;DHT22;9211;48.818;9.312;2023-05-24T15:19:17;20.30;87.80
18173;DHT22;9211;48.818;9.312;2023-05-24T15:21:44;20.40;87.60
18173;DHT22;9211;48.818;9.312;2023-05-24T15:24:10;20.60;87.90
18173;DHT22;9211;48.818;9.312;2023-05-24T15:26:39;20.60;85.80
18173;DHT22;9211;48.818;9.312;2023-05-24T15:29:06;20.60;87.20
18173;DHT22;9211;48.818;9.312;2023-05-24T15:31:33;20.80;87.40
18173;DHT22;9211;48.818;9.312;2023-05-24T15:34:02;20.90;86.80
18173;DHT22;9211;48.818;9.312;2023-05-24T15:36:30;21.10;87.00
18173;DHT22;9211;48.818;9.312;2023-05-24T15:38:57;21.40;87.20
18173;DHT22;9211;48.818;9.312;2023-05-24T15:41:24;21.60;85.40
18173;DHT22;9211;48.818;9.312;2023-05-24T15:43:51;21.60;86.70
18173;DHT22;9211;48.818;9.312;2023-05-24T15:46:19;21.80;83.80
18173;DHT22;9211;48.818;9.312;2023-05-24T15:48:47;21.70;83.90
18173;DHT22;9211;48.818;9.312;2023-05-24T15:51:15;21.60;84.70